Airfield :
LOGIN :

Register | Disclaimer

   EN    FR    IT 

 










Legend :    VFR   Marginal VFR   IFR   Intensive IFR   Very Intensive IFR
Visi :
Ceiling :
>= 8 km
>= 3000ft
5 to 8 km
1000 to 3000 ft
1500m to 5 km
500 to 1000 ft
800 to 1500m
200 to 500 ft
< 800m
< 200 ft
Symbols :   Thunderstorms  Fog  Heavy snow  Heavy precipitations  Wind > 20 kt
SIGMETs :     Misc.  Thunderstorms  Icing  Turbulence  Mountain Waves  Volcanic Ashes






- Airport Elevation : 33 ft
- IATA code : MHZ


EGUN - RAF Mildenhall

CURRENT METAR :
  • 240255Z 25009KT 9999 CLR 08/06 A2947 RMK A02A SLPNO WND DATA ESTMD ALTSG ESTMD RVRNO PNO VISNO RWY11 CHINO RWY11 $

EXPIRED METARs :
  • 240156Z AUTO M M M M M M RMK AO2 SLPNO RVRNO PNO VISNO RWY11 CHINO RWY11 $
  • 240055Z 27010KT 9999 CLR 09/07 A2946 RMK SLPNO WND DATA EASTMD ALTSG ESTMD RVRNO PWINO PNO VISNO RWY11 CHINO RWY11 $

TAF TAF EGUN
Valid from the 23 at 20:00 until the 25 at 02:00 UTC


232000Z 2320/2502 26012G20KT 8000 -SHRA BKN020 QNH2941INS
BECMG 2323/2324 23010G20KT 9999 NSW SCT007 BKN020 QNH2937INS
BECMG 2405/2406 20015G20KT 8000 -SHRA BKN020 QNH2933INS
BECMG 2410/2411 21015G25KT 9000 -SHRA BKN040 QNH2932INS
BECMG 2418/2419 28009KT 9000 -SHRA BKN020 QNH2933INS TX16/2416Z TN08/2405Z



MET'MAP, your aeronautical weather chart ! - Copyright ORBIFLY December 2007 - Disclaimer

ORBIFLY MET'MAP TEAM :

Programming & Development : Alexandra Zaïnal
Concept & original design : Baudouin d'Aumeries
Assistance for programming : Marc-Olivier Méhu
Technical & hardware support : Manuel Goepfert

Contact : metmap@orbifly.com




SOURCES & CREDITS :

   NOAA